sensor_id;sensor_type;location;lat;lon;timestamp;temperature;humidity
152;DHT22;68;48.792;9.164;2022-11-15T00:01:30;10.70;93.00
152;DHT22;68;48.792;9.164;2022-11-15T00:03:57;10.80;92.80
152;DHT22;68;48.792;9.164;2022-11-15T00:06:25;10.80;90.60
152;DHT22;68;48.792;9.164;2022-11-15T00:08:52;10.90;90.70
152;DHT22;68;48.792;9.164;2022-11-15T00:11:18;10.80;90.20
152;DHT22;68;48.792;9.164;2022-11-15T00:13:45;10.80;91.50
152;DHT22;68;48.792;9.164;2022-11-15T00:16:12;10.60;92.30
152;DHT22;68;48.792;9.164;2022-11-15T00:18:39;10.80;92.60
152;DHT22;68;48.792;9.164;2022-11-15T00:21:07;10.70;92.60
152;DHT22;68;48.792;9.164;2022-11-15T00:23:36;10.70;92.60
152;DHT22;68;48.792;9.164;2022-11-15T00:26:03;10.60;92.80
152;DHT22;68;48.792;9.164;2022-11-15T00:28:30;10.70;92.10
152;DHT22;68;48.792;9.164;2022-11-15T00:31:00;10.70;92.50
152;DHT22;68;48.792;9.164;2022-11-15T00:33:27;10.80;92.50
152;DHT22;68;48.792;9.164;2022-11-15T00:35:59;10.70;92.30
152;DHT22;68;48.792;9.164;2022-11-15T00:38:31;10.70;92.20
152;DHT22;68;48.792;9.164;2022-11-15T00:41:00;10.80;93.10
152;DHT22;68;48.792;9.164;2022-11-15T00:43:27;10.90;91.40
152;DHT22;68;48.792;9.164;2022-11-15T00:45:54;11.00;91.30
152;DHT22;68;48.792;9.164;2022-11-15T00:48:21;10.90;91.70
152;DHT22;68;48.792;9.164;2022-11-15T00:50:48;11.00;92.60
152;DHT22;68;48.792;9.164;2022-11-15T00:53:15;11.00;91.90
152;DHT22;68;48.792;9.164;2022-11-15T00:55:42;11.10;90.30
152;DHT22;68;48.792;9.164;2022-11-15T00:58:10;11.30;89.40
152;DHT22;68;48.792;9.164;2022-11-15T01:00:37;11.30;88.30
152;DHT22;68;48.792;9.164;2022-11-15T01:03:03;11.20;89.10
152;DHT22;68;48.792;9.164;2022-11-15T01:05:30;11.20;89.20
152;DHT22;68;48.792;9.164;2022-11-15T01:07:57;11.00;90.60
152;DHT22;68;48.792;9.164;2022-11-15T01:10:24;11.10;91.60
152;DHT22;68;48.792;9.164;2022-11-15T01:12:51;10.80;91.30
152;DHT22;68;48.792;9.164;2022-11-15T01:15:19;10.80;92.60
152;DHT22;68;48.792;9.164;2022-11-15T01:17:46;10.60;92.70
152;DHT22;68;48.792;9.164;2022-11-15T01:20:13;10.50;93.70
152;DHT22;68;48.792;9.164;2022-11-15T01:22:39;10.30;93.90
152;DHT22;68;48.792;9.164;2022-11-15T01:25:06;10.20;94.50
152;DHT22;68;48.792;9.164;2022-11-15T01:27:33;10.10;95.00
152;DHT22;68;48.792;9.164;2022-11-15T01:30:00;10.00;95.30
152;DHT22;68;48.792;9.164;2022-11-15T01:32:28;9.70;95.60
152;DHT22;68;48.792;9.164;2022-11-15T01:34:55;9.60;96.20
152;DHT22;68;48.792;9.164;2022-11-15T01:37:21;9.60;96.30
152;DHT22;68;48.792;9.164;2022-11-15T01:39:48;9.50;96.40
152;DHT22;68;48.792;9.164;2022-11-15T01:42:15;9.40;96.60
152;DHT22;68;48.792;9.164;2022-11-15T01:44:44;9.20;96.60
152;DHT22;68;48.792;9.164;2022-11-15T01:47:15;9.20;96.50
152;DHT22;68;48.792;9.164;2022-11-15T01:49:51;9.10;96.80
152;DHT22;68;48.792;9.164;2022-11-15T01:52:20;9.20;95.20
152;DHT22;68;48.792;9.164;2022-11-15T01:54:51;9.10;95.70
152;DHT22;68;48.792;9.164;2022-11-15T01:57:19;8.90;94.20
152;DHT22;68;48.792;9.164;2022-11-15T01:59:47;9.00;95.30
152;DHT22;68;48.792;9.164;2022-11-15T02:02:14;8.90;95.20
152;DHT22;68;48.792;9.164;2022-11-15T02:04:43;8.80;94.70
152;DHT22;68;48.792;9.164;2022-11-15T02:07:15;8.90;94.60
152;DHT22;68;48.792;9.164;2022-11-15T02:09:42;8.80;93.30
152;DHT22;68;48.792;9.164;2022-11-15T02:12:10;8.80;94.60
152;DHT22;68;48.792;9.164;2022-11-15T02:14:43;8.90;95.00
152;DHT22;68;48.792;9.164;2022-11-15T02:17:26;9.10;95.20
152;DHT22;68;48.792;9.164;2022-11-15T02:20:20;9.30;95.40
152;DHT22;68;48.792;9.164;2022-11-15T02:23:11;9.50;95.30
152;DHT22;68;48.792;9.164;2022-11-15T02:25:49;9.30;95.70
152;DHT22;68;48.792;9.164;2022-11-15T02:28:40;9.30;95.70
152;DHT22;68;48.792;9.164;2022-11-15T02:31:14;9.30;95.50
152;DHT22;68;48.792;9.164;2022-11-15T02:33:52;9.30;95.70
152;DHT22;68;48.792;9.164;2022-11-15T02:36:31;9.30;96.00
152;DHT22;68;48.792;9.164;2022-11-15T02:39:04;9.50;96.10
152;DHT22;68;48.792;9.164;2022-11-15T02:41:39;9.30;96.60
152;DHT22;68;48.792;9.164;2022-11-15T02:44:12;9.20;96.60
152;DHT22;68;48.792;9.164;2022-11-15T02:46:42;9.10;96.40
152;DHT22;68;48.792;9.164;2022-11-15T02:49:30;9.10;96.60
152;DHT22;68;48.792;9.164;2022-11-15T02:51:57;8.90;96.30
152;DHT22;68;48.792;9.164;2022-11-15T02:54:29;8.90;96.00
152;DHT22;68;48.792;9.164;2022-11-15T02:56:59;8.90;96.20
152;DHT22;68;48.792;9.164;2022-11-15T03:02:34;8.90;96.20
152;DHT22;68;48.792;9.164;2022-11-15T03:05:11;9.00;96.40
152;DHT22;68;48.792;9.164;2022-11-15T03:07:44;9.10;94.90
152;DHT22;68;48.792;9.164;2022-11-15T03:10:19;9.10;96.50
152;DHT22;68;48.792;9.164;2022-11-15T03:12:53;9.00;96.50
152;DHT22;68;48.792;9.164;2022-11-15T03:15:25;8.90;96.40
152;DHT22;68;48.792;9.164;2022-11-15T03:17:58;8.90;96.50
152;DHT22;68;48.792;9.164;2022-11-15T03:20:28;8.90;96.30
152;DHT22;68;48.792;9.164;2022-11-15T03:23:02;8.80;96.30
152;DHT22;68;48.792;9.164;2022-11-15T03:25:32;8.80;96.20
152;DHT22;68;48.792;9.164;2022-11-15T03:28:02;8.80;96.00
152;DHT22;68;48.792;9.164;2022-11-15T03:30:32;8.80;95.60
152;DHT22;68;48.792;9.164;2022-11-15T03:33:04;8.70;95.90
152;DHT22;68;48.792;9.164;2022-11-15T03:35:35;8.70;95.60
152;DHT22;68;48.792;9.164;2022-11-15T03:38:08;8.60;95.30
152;DHT22;68;48.792;9.164;2022-11-15T03:40:39;8.60;95.30
152;DHT22;68;48.792;9.164;2022-11-15T03:43:12;8.60;95.00
152;DHT22;68;48.792;9.164;2022-11-15T03:45:46;8.50;94.90
152;DHT22;68;48.792;9.164;2022-11-15T03:48:20;8.50;94.90
152;DHT22;68;48.792;9.164;2022-11-15T03:50:48;8.60;95.20
152;DHT22;68;48.792;9.164;2022-11-15T03:53:15;8.60;95.20
152;DHT22;68;48.792;9.164;2022-11-15T03:55:42;8.80;94.60
152;DHT22;68;48.792;9.164;2022-11-15T03:58:08;8.90;95.20
152;DHT22;68;48.792;9.164;2022-11-15T04:00:35;8.90;96.00
152;DHT22;68;48.792;9.164;2022-11-15T04:03:02;8.80;96.00
152;DHT22;68;48.792;9.164;2022-11-15T04:05:30;8.80;96.00
152;DHT22;68;48.792;9.164;2022-11-15T04:07:57;8.80;96.20
152;DHT22;68;48.792;9.164;2022-11-15T04:10:24;8.90;96.20
152;DHT22;68;48.792;9.164;2022-11-15T04:12:50;8.90;96.20
152;DHT22;68;48.792;9.164;2022-11-15T04:15:20;9.00;95.90
152;DHT22;68;48.792;9.164;2022-11-15T04:17:49;8.90;95.90
152;DHT22;68;48.792;9.164;2022-11-15T04:20:18;8.90;96.30
152;DHT22;68;48.792;9.164;2022-11-15T04:23:06;9.00;96.00
152;DHT22;68;48.792;9.164;2022-11-15T04:25:52;9.10;96.70
152;DHT22;68;48.792;9.164;2022-11-15T04:28:19;9.10;96.20
152;DHT22;68;48.792;9.164;2022-11-15T04:30:46;9.10;96.30
152;DHT22;68;48.792;9.164;2022-11-15T04:33:13;9.10;96.00
152;DHT22;68;48.792;9.164;2022-11-15T04:35:41;9.20;96.00
152;DHT22;68;48.792;9.164;2022-11-15T04:38:10;9.20;96.10
152;DHT22;68;48.792;9.164;2022-11-15T04:40:37;9.20;96.40
152;DHT22;68;48.792;9.164;2022-11-15T04:43:04;9.20;96.40
152;DHT22;68;48.792;9.164;2022-11-15T04:45:31;9.20;96.60
152;DHT22;68;48.792;9.164;2022-11-15T04:47:58;9.20;96.40
152;DHT22;68;48.792;9.164;2022-11-15T04:50:24;9.20;96.50
152;DHT22;68;48.792;9.164;2022-11-15T04:52:53;9.00;96.30
152;DHT22;68;48.792;9.164;2022-11-15T04:55:21;8.90;95.90
152;DHT22;68;48.792;9.164;2022-11-15T04:57:48;8.80;95.90
152;DHT22;68;48.792;9.164;2022-11-15T05:00:32;8.70;95.60
152;DHT22;68;48.792;9.164;2022-11-15T05:02:58;8.60;95.00
152;DHT22;68;48.792;9.164;2022-11-15T05:05:43;8.60;94.90
152;DHT22;68;48.792;9.164;2022-11-15T05:08:10;8.60;94.50
152;DHT22;68;48.792;9.164;2022-11-15T05:10:38;8.50;94.80
152;DHT22;68;48.792;9.164;2022-11-15T05:13:04;8.50;95.00
152;DHT22;68;48.792;9.164;2022-11-15T05:15:31;8.60;95.10
152;DHT22;68;48.792;9.164;2022-11-15T05:17:58;8.60;94.60
152;DHT22;68;48.792;9.164;2022-11-15T05:20:26;8.60;95.20
152;DHT22;68;48.792;9.164;2022-11-15T05:22:53;8.70;94.90
152;DHT22;68;48.792;9.164;2022-11-15T05:25:20;8.70;95.60
152;DHT22;68;48.792;9.164;2022-11-15T05:27:48;8.70;95.90
152;DHT22;68;48.792;9.164;2022-11-15T05:30:15;8.70;95.20
152;DHT22;68;48.792;9.164;2022-11-15T05:32:42;8.70;94.30
152;DHT22;68;48.792;9.164;2022-11-15T05:35:13;8.60;95.20
152;DHT22;68;48.792;9.164;2022-11-15T05:37:41;8.60;94.80
152;DHT22;68;48.792;9.164;2022-11-15T05:40:09;8.60;95.40
152;DHT22;68;48.792;9.164;2022-11-15T05:42:35;8.60;95.20
152;DHT22;68;48.792;9.164;2022-11-15T05:45:06;8.70;95.70
152;DHT22;68;48.792;9.164;2022-11-15T05:47:35;8.70;96.00
152;DHT22;68;48.792;9.164;2022-11-15T05:50:03;8.80;96.00
152;DHT22;68;48.792;9.164;2022-11-15T05:52:31;8.80;96.30
152;DHT22;68;48.792;9.164;2022-11-15T05:54:59;8.90;96.40
152;DHT22;68;48.792;9.164;2022-11-15T05:57:26;8.90;96.30
152;DHT22;68;48.792;9.164;2022-11-15T05:59:54;8.90;96.50
152;DHT22;68;48.792;9.164;2022-11-15T06:02:22;8.90;96.40
152;DHT22;68;48.792;9.164;2022-11-15T06:04:49;8.90;96.40
152;DHT22;68;48.792;9.164;2022-11-15T06:07:15;8.90;96.40
152;DHT22;68;48.792;9.164;2022-11-15T06:09:42;8.90;96.50
152;DHT22;68;48.792;9.164;2022-11-15T06:12:09;9.10;96.30
152;DHT22;68;48.792;9.164;2022-11-15T06:14:36;9.40;96.10
152;DHT22;68;48.792;9.164;2022-11-15T06:17:02;9.20;96.80
152;DHT22;68;48.792;9.164;2022-11-15T06:19:30;9.10;95.30
152;DHT22;68;48.792;9.164;2022-11-15T06:21:58;9.00;96.30
152;DHT22;68;48.792;9.164;2022-11-15T06:24:25;9.30;96.20
152;DHT22;68;48.792;9.164;2022-11-15T06:26:51;9.30;96.10
152;DHT22;68;48.792;9.164;2022-11-15T06:29:18;9.20;96.10
152;DHT22;68;48.792;9.164;2022-11-15T06:31:45;9.00;95.70
152;DHT22;68;48.792;9.164;2022-11-15T06:34:18;8.90;95.50
152;DHT22;68;48.792;9.164;2022-11-15T06:36:46;9.10;93.90
152;DHT22;68;48.792;9.164;2022-11-15T06:39:13;8.90;94.90
152;DHT22;68;48.792;9.164;2022-11-15T06:41:39;9.10;94.50
152;DHT22;68;48.792;9.164;2022-11-15T06:44:06;9.30;94.20
152;DHT22;68;48.792;9.164;2022-11-15T06:46:33;9.50;94.80
152;DHT22;68;48.792;9.164;2022-11-15T06:49:00;9.70;95.80
152;DHT22;68;48.792;9.164;2022-11-15T06:51:27;9.60;96.10
152;DHT22;68;48.792;9.164;2022-11-15T06:53:55;9.40;96.10
152;DHT22;68;48.792;9.164;2022-11-15T06:56:22;9.20;96.20
152;DHT22;68;48.792;9.164;2022-11-15T06:58:48;9.30;95.60
152;DHT22;68;48.792;9.164;2022-11-15T07:01:15;9.40;95.70
152;DHT22;68;48.792;9.164;2022-11-15T07:03:42;9.40;95.20
152;DHT22;68;48.792;9.164;2022-11-15T07:06:09;9.30;95.50
152;DHT22;68;48.792;9.164;2022-11-15T07:08:37;9.30;95.60
152;DHT22;68;48.792;9.164;2022-11-15T07:11:07;9.40;95.00
152;DHT22;68;48.792;9.164;2022-11-15T07:13:35;9.50;95.40
152;DHT22;68;48.792;9.164;2022-11-15T07:16:03;9.60;95.10
152;DHT22;68;48.792;9.164;2022-11-15T07:18:30;9.60;95.50
152;DHT22;68;48.792;9.164;2022-11-15T07:21:00;9.60;96.30
152;DHT22;68;48.792;9.164;2022-11-15T07:23:27;9.60;96.20
152;DHT22;68;48.792;9.164;2022-11-15T07:25:56;9.60;96.60
152;DHT22;68;48.792;9.164;2022-11-15T07:28:25;9.80;96.30
152;DHT22;68;48.792;9.164;2022-11-15T07:30:52;10.10;96.70
152;DHT22;68;48.792;9.164;2022-11-15T07:33:19;10.00;96.50
152;DHT22;68;48.792;9.164;2022-11-15T07:35:45;10.10;96.50
152;DHT22;68;48.792;9.164;2022-11-15T07:38:15;10.30;96.30
152;DHT22;68;48.792;9.164;2022-11-15T07:40:44;10.50;96.20
152;DHT22;68;48.792;9.164;2022-11-15T07:43:12;10.90;95.80
152;DHT22;68;48.792;9.164;2022-11-15T07:45:42;11.20;94.40
152;DHT22;68;48.792;9.164;2022-11-15T07:48:09;11.30;92.40
152;DHT22;68;48.792;9.164;2022-11-15T07:50:36;11.40;90.80
152;DHT22;68;48.792;9.164;2022-11-15T07:53:03;11.50;89.90
152;DHT22;68;48.792;9.164;2022-11-15T07:55:30;11.60;89.90
152;DHT22;68;48.792;9.164;2022-11-15T07:58:00;11.80;89.20
152;DHT22;68;48.792;9.164;2022-11-15T08:00:28;11.80;88.40
152;DHT22;68;48.792;9.164;2022-11-15T08:03:03;11.70;88.10
152;DHT22;68;48.792;9.164;2022-11-15T08:05:30;11.60;88.30
152;DHT22;68;48.792;9.164;2022-11-15T08:07:58;11.70;88.40
152;DHT22;68;48.792;9.164;2022-11-15T08:10:25;11.80;88.00
152;DHT22;68;48.792;9.164;2022-11-15T08:12:57;12.10;88.20
152;DHT22;68;48.792;9.164;2022-11-15T08:15:25;12.20;86.80
152;DHT22;68;48.792;9.164;2022-11-15T08:17:54;12.30;86.90
152;DHT22;68;48.792;9.164;2022-11-15T08:20:22;12.40;86.30
152;DHT22;68;48.792;9.164;2022-11-15T08:22:49;12.40;86.00
152;DHT22;68;48.792;9.164;2022-11-15T08:25:16;12.50;85.30
152;DHT22;68;48.792;9.164;2022-11-15T08:27:43;12.60;85.60
152;DHT22;68;48.792;9.164;2022-11-15T08:30:11;12.60;84.60
152;DHT22;68;48.792;9.164;2022-11-15T08:32:39;12.60;85.30
152;DHT22;68;48.792;9.164;2022-11-15T08:35:06;12.70;84.70
152;DHT22;68;48.792;9.164;2022-11-15T08:37:35;12.70;84.70
152;DHT22;68;48.792;9.164;2022-11-15T08:40:02;12.70;83.90
152;DHT22;68;48.792;9.164;2022-11-15T08:42:29;12.60;84.50
152;DHT22;68;48.792;9.164;2022-11-15T08:44:56;12.70;84.40
152;DHT22;68;48.792;9.164;2022-11-15T08:47:23;12.70;84.20
152;DHT22;68;48.792;9.164;2022-11-15T08:49:50;12.70;83.70
152;DHT22;68;48.792;9.164;2022-11-15T08:52:16;12.70;83.70
152;DHT22;68;48.792;9.164;2022-11-15T08:54:44;12.80;83.80
152;DHT22;68;48.792;9.164;2022-11-15T08:57:11;13.00;83.60
152;DHT22;68;48.792;9.164;2022-11-15T08:59:38;13.00;83.40
152;DHT22;68;48.792;9.164;2022-11-15T09:02:05;13.20;83.20
152;DHT22;68;48.792;9.164;2022-11-15T09:04:32;13.30;82.20
152;DHT22;68;48.792;9.164;2022-11-15T09:06:59;13.40;82.20
152;DHT22;68;48.792;9.164;2022-11-15T09:09:26;13.50;81.80
152;DHT22;68;48.792;9.164;2022-11-15T09:11:54;13.50;80.70
152;DHT22;68;48.792;9.164;2022-11-15T09:14:21;13.60;80.90
152;DHT22;68;48.792;9.164;2022-11-15T09:16:47;13.80;80.60
152;DHT22;68;48.792;9.164;2022-11-15T09:19:14;14.00;80.20
152;DHT22;68;48.792;9.164;2022-11-15T09:21:41;14.10;80.60
152;DHT22;68;48.792;9.164;2022-11-15T09:24:08;14.00;79.10
152;DHT22;68;48.792;9.164;2022-11-15T09:26:35;14.10;80.10
152;DHT22;68;48.792;9.164;2022-11-15T09:29:03;14.20;79.40
152;DHT22;68;48.792;9.164;2022-11-15T09:31:30;14.00;81.00
152;DHT22;68;48.792;9.164;2022-11-15T09:33:57;13.90;81.10
152;DHT22;68;48.792;9.164;2022-11-15T09:36:24;13.90;79.30
152;DHT22;68;48.792;9.164;2022-11-15T09:38:51;14.10;79.80
152;DHT22;68;48.792;9.164;2022-11-15T09:41:43;14.20;80.10
152;DHT22;68;48.792;9.164;2022-11-15T09:44:31;14.30;79.50
152;DHT22;68;48.792;9.164;2022-11-15T09:47:10;14.40;79.00
152;DHT22;68;48.792;9.164;2022-11-15T09:49:40;14.60;78.30
152;DHT22;68;48.792;9.164;2022-11-15T09:52:07;14.80;78.80
152;DHT22;68;48.792;9.164;2022-11-15T09:54:36;14.90;78.50
152;DHT22;68;48.792;9.164;2022-11-15T09:57:06;14.80;77.90
152;DHT22;68;48.792;9.164;2022-11-15T09:59:46;14.90;78.10
152;DHT22;68;48.792;9.164;2022-11-15T10:02:27;15.00;77.00
152;DHT22;68;48.792;9.164;2022-11-15T10:04:59;15.00;77.50
152;DHT22;68;48.792;9.164;2022-11-15T10:07:30;14.90;77.60
152;DHT22;68;48.792;9.164;2022-11-15T10:10:04;15.20;77.60
152;DHT22;68;48.792;9.164;2022-11-15T10:12:35;15.20;76.90
152;DHT22;68;48.792;9.164;2022-11-15T10:15:09;15.40;77.60
152;DHT22;68;48.792;9.164;2022-11-15T10:17:54;15.50;77.20
152;DHT22;68;48.792;9.164;2022-11-15T10:20:24;15.80;76.30
152;DHT22;68;48.792;9.164;2022-11-15T10:22:54;16.00;76.00
152;DHT22;68;48.792;9.164;2022-11-15T10:25:23;15.90;75.80
152;DHT22;68;48.792;9.164;2022-11-15T10:27:54;15.70;75.50
152;DHT22;68;48.792;9.164;2022-11-15T10:30:29;15.70;76.20
152;DHT22;68;48.792;9.164;2022-11-15T10:32:56;15.60;76.00
152;DHT22;68;48.792;9.164;2022-11-15T10:35:25;15.60;77.90
152;DHT22;68;48.792;9.164;2022-11-15T10:38:04;15.60;77.80
152;DHT22;68;48.792;9.164;2022-11-15T10:40:32;15.50;77.00
152;DHT22;68;48.792;9.164;2022-11-15T10:43:05;15.60;76.90
152;DHT22;68;48.792;9.164;2022-11-15T10:45:34;15.60;76.60
152;DHT22;68;48.792;9.164;2022-11-15T10:48:20;15.60;77.60
152;DHT22;68;48.792;9.164;2022-11-15T10:50:49;15.60;76.40
152;DHT22;68;48.792;9.164;2022-11-15T10:53:30;15.60;76.60
152;DHT22;68;48.792;9.164;2022-11-15T10:56:00;15.70;76.50
152;DHT22;68;48.792;9.164;2022-11-15T10:58:35;15.70;76.70
152;DHT22;68;48.792;9.164;2022-11-15T11:01:11;15.80;77.90
152;DHT22;68;48.792;9.164;2022-11-15T11:03:39;15.80;77.40
152;DHT22;68;48.792;9.164;2022-11-15T11:06:09;15.70;76.30
152;DHT22;68;48.792;9.164;2022-11-15T11:08:36;15.80;75.90
152;DHT22;68;48.792;9.164;2022-11-15T11:11:04;15.70;76.40
152;DHT22;68;48.792;9.164;2022-11-15T11:13:34;15.60;77.60
152;DHT22;68;48.792;9.164;2022-11-15T11:16:32;15.50;78.50
152;DHT22;68;48.792;9.164;2022-11-15T11:19:08;15.40;80.30
152;DHT22;68;48.792;9.164;2022-11-15T11:21:43;15.50;79.70
152;DHT22;68;48.792;9.164;2022-11-15T11:24:18;15.60;78.90
152;DHT22;68;48.792;9.164;2022-11-15T11:27:03;15.60;79.40
152;DHT22;68;48.792;9.164;2022-11-15T11:29:43;15.70;77.90
152;DHT22;68;48.792;9.164;2022-11-15T11:32:30;15.80;78.00
152;DHT22;68;48.792;9.164;2022-11-15T11:35:08;15.90;78.50
152;DHT22;68;48.792;9.164;2022-11-15T11:37:43;15.70;77.30
152;DHT22;68;48.792;9.164;2022-11-15T11:40:20;15.80;77.60
152;DHT22;68;48.792;9.164;2022-11-15T11:42:54;15.90;78.40
152;DHT22;68;48.792;9.164;2022-11-15T11:45:45;16.00;78.10
152;DHT22;68;48.792;9.164;2022-11-15T11:48:23;16.20;77.60
152;DHT22;68;48.792;9.164;2022-11-15T11:50:53;15.90;77.20
152;DHT22;68;48.792;9.164;2022-11-15T11:53:27;16.00;77.90
152;DHT22;68;48.792;9.164;2022-11-15T11:55:58;16.00;77.40
152;DHT22;68;48.792;9.164;2022-11-15T11:58:33;16.10;77.40
152;DHT22;68;48.792;9.164;2022-11-15T12:01:07;16.10;76.40
152;DHT22;68;48.792;9.164;2022-11-15T12:03:43;15.90;77.30
152;DHT22;68;48.792;9.164;2022-11-15T12:06:31;16.00;78.20
152;DHT22;68;48.792;9.164;2022-11-15T12:09:03;16.00;77.20
152;DHT22;68;48.792;9.164;2022-11-15T12:11:37;16.10;77.30
152;DHT22;68;48.792;9.164;2022-11-15T12:14:12;16.10;76.10
152;DHT22;68;48.792;9.164;2022-11-15T12:16:43;16.10;77.90
152;DHT22;68;48.792;9.164;2022-11-15T12:19:11;16.10;77.60
152;DHT22;68;48.792;9.164;2022-11-15T12:21:44;15.70;78.30
152;DHT22;68;48.792;9.164;2022-11-15T12:24:16;15.60;79.40
152;DHT22;68;48.792;9.164;2022-11-15T12:26:49;15.20;79.70
152;DHT22;68;48.792;9.164;2022-11-15T12:29:21;15.20;81.20
152;DHT22;68;48.792;9.164;2022-11-15T12:31:52;15.30;81.30
152;DHT22;68;48.792;9.164;2022-11-15T12:34:40;15.40;82.30
152;DHT22;68;48.792;9.164;2022-11-15T12:40:25;15.80;80.70
152;DHT22;68;48.792;9.164;2022-11-15T12:43:01;15.60;80.40
152;DHT22;68;48.792;9.164;2022-11-15T12:45:30;15.70;80.30
152;DHT22;68;48.792;9.164;2022-11-15T12:48:47;15.90;79.70
152;DHT22;68;48.792;9.164;2022-11-15T12:51:16;16.00;79.10
152;DHT22;68;48.792;9.164;2022-11-15T12:53:43;16.00;80.00
152;DHT22;68;48.792;9.164;2022-11-15T12:56:24;15.90;81.60
152;DHT22;68;48.792;9.164;2022-11-15T12:58:55;15.80;82.20
152;DHT22;68;48.792;9.164;2022-11-15T13:01:57;16.00;80.80
152;DHT22;68;48.792;9.164;2022-11-15T13:04:27;15.70;81.70
152;DHT22;68;48.792;9.164;2022-11-15T13:06:57;15.40;82.60
152;DHT22;68;48.792;9.164;2022-11-15T13:12:50;15.80;82.60
152;DHT22;68;48.792;9.164;2022-11-15T13:15:51;15.70;82.10
152;DHT22;68;48.792;9.164;2022-11-15T13:18:31;15.50;83.40
152;DHT22;68;48.792;9.164;2022-11-15T13:20:58;15.40;83.20
152;DHT22;68;48.792;9.164;2022-11-15T13:23:27;15.20;84.00
152;DHT22;68;48.792;9.164;2022-11-15T13:26:10;15.30;83.80
152;DHT22;68;48.792;9.164;2022-11-15T13:28:42;15.50;83.40
152;DHT22;68;48.792;9.164;2022-11-15T13:31:34;15.50;81.70
152;DHT22;68;48.792;9.164;2022-11-15T13:34:12;15.50;82.00
152;DHT22;68;48.792;9.164;2022-11-15T13:36:40;15.40;82.80
152;DHT22;68;48.792;9.164;2022-11-15T13:39:25;15.50;82.80
152;DHT22;68;48.792;9.164;2022-11-15T13:41:53;15.60;82.80
152;DHT22;68;48.792;9.164;2022-11-15T13:44:21;15.60;83.30
152;DHT22;68;48.792;9.164;2022-11-15T13:46:48;15.60;83.00
152;DHT22;68;48.792;9.164;2022-11-15T13:49:15;15.40;81.80
152;DHT22;68;48.792;9.164;2022-11-15T13:51:43;15.30;82.20
152;DHT22;68;48.792;9.164;2022-11-15T13:54:18;15.40;82.10
152;DHT22;68;48.792;9.164;2022-11-15T13:56:49;15.60;82.30
152;DHT22;68;48.792;9.164;2022-11-15T13:59:25;15.40;83.10
152;DHT22;68;48.792;9.164;2022-11-15T14:01:52;15.30;84.40
152;DHT22;68;48.792;9.164;2022-11-15T14:04:21;15.20;85.60
152;DHT22;68;48.792;9.164;2022-11-15T14:06:51;15.00;86.60
152;DHT22;68;48.792;9.164;2022-11-15T14:09:41;15.10;87.40
152;DHT22;68;48.792;9.164;2022-11-15T14:12:31;15.10;87.20
152;DHT22;68;48.792;9.164;2022-11-15T14:14:59;14.80;89.00
152;DHT22;68;48.792;9.164;2022-11-15T14:17:37;14.70;90.50
152;DHT22;68;48.792;9.164;2022-11-15T14:20:31;14.60;92.60
152;DHT22;68;48.792;9.164;2022-11-15T14:23:00;14.50;92.50
152;DHT22;68;48.792;9.164;2022-11-15T14:25:29;14.40;92.30
152;DHT22;68;48.792;9.164;2022-11-15T14:28:28;14.30;92.30
152;DHT22;68;48.792;9.164;2022-11-15T14:30:57;14.20;93.70
152;DHT22;68;48.792;9.164;2022-11-15T14:33:27;13.80;94.90
152;DHT22;68;48.792;9.164;2022-11-15T14:35:56;13.80;95.10
152;DHT22;68;48.792;9.164;2022-11-15T14:38:23;13.80;94.90
152;DHT22;68;48.792;9.164;2022-11-15T14:40:52;13.80;95.20
152;DHT22;68;48.792;9.164;2022-11-15T14:43:19;13.80;95.10
152;DHT22;68;48.792;9.164;2022-11-15T14:45:46;13.70;94.30
152;DHT22;68;48.792;9.164;2022-11-15T14:48:12;13.80;94.30
152;DHT22;68;48.792;9.164;2022-11-15T14:50:39;14.10;93.00
152;DHT22;68;48.792;9.164;2022-11-15T14:53:06;14.20;93.20
152;DHT22;68;48.792;9.164;2022-11-15T14:55:34;14.20;92.60
152;DHT22;68;48.792;9.164;2022-11-15T14:58:03;14.20;93.20
152;DHT22;68;48.792;9.164;2022-11-15T15:00:32;14.20;93.30
152;DHT22;68;48.792;9.164;2022-11-15T15:02:59;14.10;94.90
152;DHT22;68;48.792;9.164;2022-11-15T15:05:30;14.00;93.80
152;DHT22;68;48.792;9.164;2022-11-15T15:07:57;13.80;93.90
152;DHT22;68;48.792;9.164;2022-11-15T15:10:25;13.90;94.50
152;DHT22;68;48.792;9.164;2022-11-15T15:12:53;14.10;94.70
152;DHT22;68;48.792;9.164;2022-11-15T15:15:24;14.20;94.00
152;DHT22;68;48.792;9.164;2022-11-15T15:17:51;14.00;94.20
152;DHT22;68;48.792;9.164;2022-11-15T15:20:18;13.50;95.20
152;DHT22;68;48.792;9.164;2022-11-15T15:22:45;13.30;95.20
152;DHT22;68;48.792;9.164;2022-11-15T15:25:21;13.10;95.20
152;DHT22;68;48.792;9.164;2022-11-15T15:27:48;13.00;95.20
152;DHT22;68;48.792;9.164;2022-11-15T15:30:15;12.70;95.00
152;DHT22;68;48.792;9.164;2022-11-15T15:32:43;12.70;95.00
152;DHT22;68;48.792;9.164;2022-11-15T15:35:12;12.70;94.30
152;DHT22;68;48.792;9.164;2022-11-15T15:37:39;12.70;95.10
152;DHT22;68;48.792;9.164;2022-11-15T15:40:12;12.60;94.00
152;DHT22;68;48.792;9.164;2022-11-15T15:42:40;12.50;93.50
152;DHT22;68;48.792;9.164;2022-11-15T15:45:07;12.40;93.30
152;DHT22;68;48.792;9.164;2022-11-15T15:47:34;12.30;94.30
152;DHT22;68;48.792;9.164;2022-11-15T15:50:04;12.30;92.10
152;DHT22;68;48.792;9.164;2022-11-15T15:52:31;12.20;93.10
152;DHT22;68;48.792;9.164;2022-11-15T15:54:58;12.30;92.90
152;DHT22;68;48.792;9.164;2022-11-15T15:57:24;12.30;94.20
152;DHT22;68;48.792;9.164;2022-11-15T15:59:51;12.20;93.80
152;DHT22;68;48.792;9.164;2022-11-15T16:02:18;12.20;93.20
152;DHT22;68;48.792;9.164;2022-11-15T16:04:44;12.30;92.10
152;DHT22;68;48.792;9.164;2022-11-15T16:07:17;12.20;92.50
152;DHT22;68;48.792;9.164;2022-11-15T16:09:49;12.10;93.20
152;DHT22;68;48.792;9.164;2022-11-15T16:12:29;12.10;93.60
152;DHT22;68;48.792;9.164;2022-11-15T16:14:56;12.10;94.20
152;DHT22;68;48.792;9.164;2022-11-15T16:17:25;12.10;94.50
152;DHT22;68;48.792;9.164;2022-11-15T16:19:52;12.10;94.20
152;DHT22;68;48.792;9.164;2022-11-15T16:22:20;12.20;94.60
152;DHT22;68;48.792;9.164;2022-11-15T16:24:47;12.20;94.10
152;DHT22;68;48.792;9.164;2022-11-15T16:27:15;12.10;94.50
152;DHT22;68;48.792;9.164;2022-11-15T16:29:43;12.10;95.40
152;DHT22;68;48.792;9.164;2022-11-15T16:32:10;12.10;95.20
152;DHT22;68;48.792;9.164;2022-11-15T16:34:37;12.20;94.90
152;DHT22;68;48.792;9.164;2022-11-15T16:37:04;12.10;95.30
152;DHT22;68;48.792;9.164;2022-11-15T16:39:32;12.10;95.50
152;DHT22;68;48.792;9.164;2022-11-15T16:41:59;12.20;95.10
152;DHT22;68;48.792;9.164;2022-11-15T16:44:28;12.10;95.60
152;DHT22;68;48.792;9.164;2022-11-15T16:46:54;12.10;95.60
152;DHT22;68;48.792;9.164;2022-11-15T16:49:21;12.10;94.30
152;DHT22;68;48.792;9.164;2022-11-15T16:51:49;12.00;96.10
152;DHT22;68;48.792;9.164;2022-11-15T16:54:16;12.10;95.40
152;DHT22;68;48.792;9.164;2022-11-15T16:56:44;12.20;95.30
152;DHT22;68;48.792;9.164;2022-11-15T16:59:17;12.20;94.40
152;DHT22;68;48.792;9.164;2022-11-15T17:01:45;12.40;94.80
152;DHT22;68;48.792;9.164;2022-11-15T17:04:15;12.40;94.30
152;DHT22;68;48.792;9.164;2022-11-15T17:06:44;12.50;93.20
152;DHT22;68;48.792;9.164;2022-11-15T17:09:12;12.70;92.40
152;DHT22;68;48.792;9.164;2022-11-15T17:11:40;12.80;92.20
152;DHT22;68;48.792;9.164;2022-11-15T17:14:09;12.80;92.70
152;DHT22;68;48.792;9.164;2022-11-15T17:16:36;12.70;92.20
152;DHT22;68;48.792;9.164;2022-11-15T17:19:11;13.10;92.00
152;DHT22;68;48.792;9.164;2022-11-15T17:21:38;13.10;91.40
152;DHT22;68;48.792;9.164;2022-11-15T17:24:05;13.20;92.00
152;DHT22;68;48.792;9.164;2022-11-15T17:26:32;13.40;91.80
152;DHT22;68;48.792;9.164;2022-11-15T17:28:59;13.00;91.90
152;DHT22;68;48.792;9.164;2022-11-15T17:31:28;13.00;93.50